sensor_id;sensor_type;location;lat;lon;timestamp;P1;durP1;ratioP1;P2;durP2;ratioP2
11839;SDS011;5979;50.800;4.904;2023-04-28T00:00:27;20.38;;;16.38;;
11839;SDS011;5979;50.800;4.904;2023-04-28T00:02:53;23.17;;;17.52;;
11839;SDS011;5979;50.800;4.904;2023-04-28T00:05:18;21.65;;;16.85;;
11839;SDS011;5979;50.800;4.904;2023-04-28T00:07:45;23.95;;;18.92;;
11839;SDS011;5979;50.800;4.904;2023-04-28T00:10:11;25.20;;;18.65;;
11839;SDS011;5979;50.800;4.904;2023-04-28T00:12:36;22.55;;;17.88;;
11839;SDS011;5979;50.800;4.904;2023-04-28T00:15:02;23.75;;;18.42;;
11839;SDS011;5979;50.800;4.904;2023-04-28T00:17:28;26.88;;;19.92;;
11839;SDS011;5979;50.800;4.904;2023-04-28T00:19:54;23.35;;;18.77;;
11839;SDS011;5979;50.800;4.904;2023-04-28T00:22:20;29.95;;;20.55;;
11839;SDS011;5979;50.800;4.904;2023-04-28T00:24:45;25.65;;;20.52;;
11839;SDS011;5979;50.800;4.904;2023-04-28T00:27:11;24.13;;;18.33;;
11839;SDS011;5979;50.800;4.904;2023-04-28T00:29:37;24.67;;;19.42;;
11839;SDS011;5979;50.800;4.904;2023-04-28T00:32:02;28.33;;;19.88;;
11839;SDS011;5979;50.800;4.904;2023-04-28T00:34:31;26.23;;;20.77;;
11839;SDS011;5979;50.800;4.904;2023-04-28T00:36:57;32.05;;;21.83;;
11839;SDS011;5979;50.800;4.904;2023-04-28T00:39:23;28.35;;;20.92;;
11839;SDS011;5979;50.800;4.904;2023-04-28T00:41:50;28.48;;;21.50;;
11839;SDS011;5979;50.800;4.904;2023-04-28T00:44:16;29.42;;;23.80;;
11839;SDS011;5979;50.800;4.904;2023-04-28T00:46:41;32.55;;;23.15;;
11839;SDS011;5979;50.800;4.904;2023-04-28T00:49:08;33.70;;;23.27;;
11839;SDS011;5979;50.800;4.904;2023-04-28T00:51:34;33.65;;;23.98;;
11839;SDS011;5979;50.800;4.904;2023-04-28T00:54:00;32.97;;;23.63;;
11839;SDS011;5979;50.800;4.904;2023-04-28T00:56:27;31.60;;;23.30;;
11839;SDS011;5979;50.800;4.904;2023-04-28T00:58:55;32.42;;;24.63;;
11839;SDS011;5979;50.800;4.904;2023-04-28T01:01:21;31.65;;;23.50;;
11839;SDS011;5979;50.800;4.904;2023-04-28T01:03:47;32.92;;;24.33;;
11839;SDS011;5979;50.800;4.904;2023-04-28T01:06:13;30.10;;;22.50;;
11839;SDS011;5979;50.800;4.904;2023-04-28T01:08:39;32.85;;;24.42;;
11839;SDS011;5979;50.800;4.904;2023-04-28T01:11:06;33.47;;;23.13;;
11839;SDS011;5979;50.800;4.904;2023-04-28T01:13:34;32.33;;;23.25;;
11839;SDS011;5979;50.800;4.904;2023-04-28T01:16:00;31.55;;;22.60;;
11839;SDS011;5979;50.800;4.904;2023-04-28T01:18:26;27.80;;;20.90;;
11839;SDS011;5979;50.800;4.904;2023-04-28T01:20:52;32.22;;;23.63;;
11839;SDS011;5979;50.800;4.904;2023-04-28T01:23:18;32.92;;;23.40;;
11839;SDS011;5979;50.800;4.904;2023-04-28T01:25:44;32.28;;;22.20;;
11839;SDS011;5979;50.800;4.904;2023-04-28T01:28:10;33.05;;;22.65;;
11839;SDS011;5979;50.800;4.904;2023-04-28T01:30:36;34.78;;;23.90;;
11839;SDS011;5979;50.800;4.904;2023-04-28T01:33:02;30.65;;;23.60;;
11839;SDS011;5979;50.800;4.904;2023-04-28T01:35:28;29.20;;;22.67;;
11839;SDS011;5979;50.800;4.904;2023-04-28T01:37:54;27.95;;;22.17;;
11839;SDS011;5979;50.800;4.904;2023-04-28T01:40:19;32.80;;;23.80;;
11839;SDS011;5979;50.800;4.904;2023-04-28T01:42:45;31.30;;;23.10;;
11839;SDS011;5979;50.800;4.904;2023-04-28T01:45:11;34.47;;;25.58;;
11839;SDS011;5979;50.800;4.904;2023-04-28T01:47:37;29.98;;;22.58;;
11839;SDS011;5979;50.800;4.904;2023-04-28T01:50:03;30.98;;;23.88;;
11839;SDS011;5979;50.800;4.904;2023-04-28T01:52:29;30.48;;;22.67;;
11839;SDS011;5979;50.800;4.904;2023-04-28T01:54:54;31.70;;;23.77;;
11839;SDS011;5979;50.800;4.904;2023-04-28T01:57:20;31.15;;;22.80;;
11839;SDS011;5979;50.800;4.904;2023-04-28T01:59:46;28.08;;;21.35;;
11839;SDS011;5979;50.800;4.904;2023-04-28T02:02:12;30.90;;;21.65;;
11839;SDS011;5979;50.800;4.904;2023-04-28T02:04:38;31.52;;;22.08;;
11839;SDS011;5979;50.800;4.904;2023-04-28T02:07:04;26.70;;;20.10;;
11839;SDS011;5979;50.800;4.904;2023-04-28T02:09:31;27.63;;;20.20;;
11839;SDS011;5979;50.800;4.904;2023-04-28T02:11:57;33.25;;;21.90;;
11839;SDS011;5979;50.800;4.904;2023-04-28T02:14:24;27.25;;;20.33;;
11839;SDS011;5979;50.800;4.904;2023-04-28T02:16:50;29.85;;;21.17;;
11839;SDS011;5979;50.800;4.904;2023-04-28T02:19:15;27.27;;;20.33;;
11839;SDS011;5979;50.800;4.904;2023-04-28T02:21:41;26.40;;;19.98;;
11839;SDS011;5979;50.800;4.904;2023-04-28T02:24:07;26.23;;;19.50;;
11839;SDS011;5979;50.800;4.904;2023-04-28T02:26:33;24.33;;;18.98;;
11839;SDS011;5979;50.800;4.904;2023-04-28T02:28:59;25.45;;;18.88;;
11839;SDS011;5979;50.800;4.904;2023-04-28T02:31:25;29.83;;;20.50;;
11839;SDS011;5979;50.800;4.904;2023-04-28T02:33:51;26.50;;;19.70;;
11839;SDS011;5979;50.800;4.904;2023-04-28T02:36:17;27.80;;;20.25;;
11839;SDS011;5979;50.800;4.904;2023-04-28T02:38:43;24.83;;;19.45;;
11839;SDS011;5979;50.800;4.904;2023-04-28T02:41:09;30.17;;;19.70;;
11839;SDS011;5979;50.800;4.904;2023-04-28T02:43:35;30.75;;;22.00;;
11839;SDS011;5979;50.800;4.904;2023-04-28T02:46:02;30.25;;;21.23;;
11839;SDS011;5979;50.800;4.904;2023-04-28T02:48:28;31.67;;;24.27;;
11839;SDS011;5979;50.800;4.904;2023-04-28T02:50:54;30.77;;;22.88;;
11839;SDS011;5979;50.800;4.904;2023-04-28T02:53:20;28.52;;;21.75;;
11839;SDS011;5979;50.800;4.904;2023-04-28T02:55:46;31.90;;;22.48;;
11839;SDS011;5979;50.800;4.904;2023-04-28T02:58:12;29.00;;;21.80;;
11839;SDS011;5979;50.800;4.904;2023-04-28T03:00:38;31.80;;;22.65;;
11839;SDS011;5979;50.800;4.904;2023-04-28T03:03:03;29.25;;;22.10;;
11839;SDS011;5979;50.800;4.904;2023-04-28T03:05:29;29.45;;;22.17;;
11839;SDS011;5979;50.800;4.904;2023-04-28T03:07:55;28.50;;;21.50;;
11839;SDS011;5979;50.800;4.904;2023-04-28T03:10:20;33.97;;;22.27;;
11839;SDS011;5979;50.800;4.904;2023-04-28T03:12:46;29.73;;;22.98;;
11839;SDS011;5979;50.800;4.904;2023-04-28T03:15:12;31.83;;;23.83;;
11839;SDS011;5979;50.800;4.904;2023-04-28T03:17:37;29.20;;;22.80;;
11839;SDS011;5979;50.800;4.904;2023-04-28T03:20:06;31.15;;;22.75;;
11839;SDS011;5979;50.800;4.904;2023-04-28T03:22:32;27.23;;;21.60;;
11839;SDS011;5979;50.800;4.904;2023-04-28T03:24:58;26.52;;;20.48;;
11839;SDS011;5979;50.800;4.904;2023-04-28T03:27:24;31.85;;;23.90;;
11839;SDS011;5979;50.800;4.904;2023-04-28T03:29:49;30.90;;;24.08;;
11839;SDS011;5979;50.800;4.904;2023-04-28T03:32:15;30.55;;;22.52;;
11839;SDS011;5979;50.800;4.904;2023-04-28T03:34:41;32.80;;;23.05;;
11839;SDS011;5979;50.800;4.904;2023-04-28T03:37:06;32.78;;;22.80;;
11839;SDS011;5979;50.800;4.904;2023-04-28T03:39:32;35.38;;;23.75;;
11839;SDS011;5979;50.800;4.904;2023-04-28T03:41:58;29.98;;;22.35;;
11839;SDS011;5979;50.800;4.904;2023-04-28T03:44:23;28.63;;;21.73;;
11839;SDS011;5979;50.800;4.904;2023-04-28T03:46:49;28.60;;;22.77;;
11839;SDS011;5979;50.800;4.904;2023-04-28T03:49:15;27.08;;;20.35;;
11839;SDS011;5979;50.800;4.904;2023-04-28T03:51:40;30.77;;;21.63;;
11839;SDS011;5979;50.800;4.904;2023-04-28T03:54:06;27.00;;;20.58;;
11839;SDS011;5979;50.800;4.904;2023-04-28T03:56:32;30.17;;;21.30;;
11839;SDS011;5979;50.800;4.904;2023-04-28T03:58:58;29.48;;;21.83;;
11839;SDS011;5979;50.800;4.904;2023-04-28T04:01:23;29.38;;;21.92;;
11839;SDS011;5979;50.800;4.904;2023-04-28T04:03:49;27.23;;;20.95;;
11839;SDS011;5979;50.800;4.904;2023-04-28T04:06:15;30.58;;;20.95;;
11839;SDS011;5979;50.800;4.904;2023-04-28T04:08:41;27.65;;;20.33;;
11839;SDS011;5979;50.800;4.904;2023-04-28T04:11:07;25.50;;;20.08;;
11839;SDS011;5979;50.800;4.904;2023-04-28T04:13:32;27.23;;;20.27;;
11839;SDS011;5979;50.800;4.904;2023-04-28T04:15:58;29.45;;;21.25;;
11839;SDS011;5979;50.800;4.904;2023-04-28T04:18:24;27.08;;;20.23;;
11839;SDS011;5979;50.800;4.904;2023-04-28T04:20:51;25.38;;;21.05;;
11839;SDS011;5979;50.800;4.904;2023-04-28T04:23:19;26.95;;;21.42;;
11839;SDS011;5979;50.800;4.904;2023-04-28T04:25:45;31.92;;;22.85;;
11839;SDS011;5979;50.800;4.904;2023-04-28T04:28:11;30.77;;;23.00;;
11839;SDS011;5979;50.800;4.904;2023-04-28T04:30:37;32.90;;;22.25;;
11839;SDS011;5979;50.800;4.904;2023-04-28T04:33:03;26.77;;;20.60;;
11839;SDS011;5979;50.800;4.904;2023-04-28T04:35:28;30.13;;;21.08;;
11839;SDS011;5979;50.800;4.904;2023-04-28T04:37:54;29.88;;;21.83;;
11839;SDS011;5979;50.800;4.904;2023-04-28T04:40:20;26.58;;;21.38;;
11839;SDS011;5979;50.800;4.904;2023-04-28T04:42:46;26.83;;;21.35;;
11839;SDS011;5979;50.800;4.904;2023-04-28T04:45:12;30.08;;;22.15;;
11839;SDS011;5979;50.800;4.904;2023-04-28T04:47:37;29.60;;;22.25;;
11839;SDS011;5979;50.800;4.904;2023-04-28T04:50:04;29.45;;;22.25;;
11839;SDS011;5979;50.800;4.904;2023-04-28T04:52:31;29.90;;;22.45;;
11839;SDS011;5979;50.800;4.904;2023-04-28T04:54:56;28.63;;;22.70;;
11839;SDS011;5979;50.800;4.904;2023-04-28T04:57:22;28.92;;;23.15;;
11839;SDS011;5979;50.800;4.904;2023-04-28T04:59:48;29.52;;;23.63;;
11839;SDS011;5979;50.800;4.904;2023-04-28T05:02:13;31.70;;;24.75;;
11839;SDS011;5979;50.800;4.904;2023-04-28T05:04:39;31.25;;;24.83;;
11839;SDS011;5979;50.800;4.904;2023-04-28T05:07:05;34.63;;;24.35;;
11839;SDS011;5979;50.800;4.904;2023-04-28T05:09:30;32.95;;;24.13;;
11839;SDS011;5979;50.800;4.904;2023-04-28T05:11:57;36.97;;;24.23;;
11839;SDS011;5979;50.800;4.904;2023-04-28T05:14:22;31.48;;;23.38;;
11839;SDS011;5979;50.800;4.904;2023-04-28T05:16:48;33.88;;;24.23;;
11839;SDS011;5979;50.800;4.904;2023-04-28T05:19:14;30.88;;;22.73;;
11839;SDS011;5979;50.800;4.904;2023-04-28T05:21:40;30.80;;;23.08;;
11839;SDS011;5979;50.800;4.904;2023-04-28T05:24:06;28.88;;;23.13;;
11839;SDS011;5979;50.800;4.904;2023-04-28T05:26:31;30.20;;;22.60;;
11839;SDS011;5979;50.800;4.904;2023-04-28T05:28:57;37.65;;;23.63;;
11839;SDS011;5979;50.800;4.904;2023-04-28T05:31:23;31.83;;;22.52;;
11839;SDS011;5979;50.800;4.904;2023-04-28T05:33:51;28.27;;;22.20;;
11839;SDS011;5979;50.800;4.904;2023-04-28T05:36:17;27.83;;;22.48;;
11839;SDS011;5979;50.800;4.904;2023-04-28T05:38:43;30.25;;;23.23;;
11839;SDS011;5979;50.800;4.904;2023-04-28T05:41:08;29.42;;;22.30;;
11839;SDS011;5979;50.800;4.904;2023-04-28T05:43:34;33.47;;;23.73;;
11839;SDS011;5979;50.800;4.904;2023-04-28T05:46:00;30.85;;;22.92;;
11839;SDS011;5979;50.800;4.904;2023-04-28T05:48:26;28.95;;;22.75;;
11839;SDS011;5979;50.800;4.904;2023-04-28T05:50:52;30.42;;;22.38;;
11839;SDS011;5979;50.800;4.904;2023-04-28T05:53:18;32.13;;;23.35;;
11839;SDS011;5979;50.800;4.904;2023-04-28T05:55:44;25.95;;;21.05;;
11839;SDS011;5979;50.800;4.904;2023-04-28T05:58:09;26.45;;;20.92;;
11839;SDS011;5979;50.800;4.904;2023-04-28T06:00:35;29.60;;;22.15;;
11839;SDS011;5979;50.800;4.904;2023-04-28T06:03:01;23.17;;;18.65;;
11839;SDS011;5979;50.800;4.904;2023-04-28T06:05:27;22.33;;;18.80;;
11839;SDS011;5979;50.800;4.904;2023-04-28T06:07:52;28.67;;;22.88;;
11839;SDS011;5979;50.800;4.904;2023-04-28T06:10:20;28.50;;;21.20;;
11839;SDS011;5979;50.800;4.904;2023-04-28T06:12:46;26.63;;;20.73;;
11839;SDS011;5979;50.800;4.904;2023-04-28T06:15:12;29.27;;;21.27;;
11839;SDS011;5979;50.800;4.904;2023-04-28T06:17:38;30.05;;;21.88;;
11839;SDS011;5979;50.800;4.904;2023-04-28T06:20:04;27.30;;;21.45;;
11839;SDS011;5979;50.800;4.904;2023-04-28T06:22:31;24.27;;;19.00;;
11839;SDS011;5979;50.800;4.904;2023-04-28T06:24:57;23.25;;;20.00;;
11839;SDS011;5979;50.800;4.904;2023-04-28T06:27:23;26.38;;;19.20;;
11839;SDS011;5979;50.800;4.904;2023-04-28T06:29:48;22.08;;;19.33;;
11839;SDS011;5979;50.800;4.904;2023-04-28T06:32:14;25.30;;;19.77;;
11839;SDS011;5979;50.800;4.904;2023-04-28T06:34:40;21.63;;;17.15;;
11839;SDS011;5979;50.800;4.904;2023-04-28T06:37:06;17.10;;;15.20;;
11839;SDS011;5979;50.800;4.904;2023-04-28T06:39:32;20.23;;;17.17;;
11839;SDS011;5979;50.800;4.904;2023-04-28T06:41:57;19.38;;;17.00;;
11839;SDS011;5979;50.800;4.904;2023-04-28T06:44:24;26.38;;;19.95;;
11839;SDS011;5979;50.800;4.904;2023-04-28T06:46:49;27.08;;;20.30;;
11839;SDS011;5979;50.800;4.904;2023-04-28T06:49:15;22.52;;;19.17;;
11839;SDS011;5979;50.800;4.904;2023-04-28T06:51:41;22.15;;;18.65;;
11839;SDS011;5979;50.800;4.904;2023-04-28T06:54:07;23.45;;;20.13;;
11839;SDS011;5979;50.800;4.904;2023-04-28T06:56:34;22.48;;;18.77;;
11839;SDS011;5979;50.800;4.904;2023-04-28T06:58:59;23.13;;;19.27;;
11839;SDS011;5979;50.800;4.904;2023-04-28T07:01:25;20.40;;;18.25;;
11839;SDS011;5979;50.800;4.904;2023-04-28T07:03:51;24.70;;;20.48;;
11839;SDS011;5979;50.800;4.904;2023-04-28T07:06:16;22.67;;;19.60;;
11839;SDS011;5979;50.800;4.904;2023-04-28T07:08:42;17.73;;;15.82;;
11839;SDS011;5979;50.800;4.904;2023-04-28T07:11:08;12.48;;;11.25;;
11839;SDS011;5979;50.800;4.904;2023-04-28T07:13:34;8.32;;;7.63;;
11839;SDS011;5979;50.800;4.904;2023-04-28T07:15:59;7.78;;;7.15;;
11839;SDS011;5979;50.800;4.904;2023-04-28T07:18:25;8.70;;;8.00;;
11839;SDS011;5979;50.800;4.904;2023-04-28T07:20:51;7.25;;;6.63;;
11839;SDS011;5979;50.800;4.904;2023-04-28T07:23:17;8.30;;;7.57;;
11839;SDS011;5979;50.800;4.904;2023-04-28T07:25:42;8.00;;;7.32;;
11839;SDS011;5979;50.800;4.904;2023-04-28T07:28:08;7.07;;;6.57;;
11839;SDS011;5979;50.800;4.904;2023-04-28T07:30:34;7.45;;;6.82;;
11839;SDS011;5979;50.800;4.904;2023-04-28T07:33:00;6.82;;;6.32;;
11839;SDS011;5979;50.800;4.904;2023-04-28T07:35:27;6.57;;;6.07;;
11839;SDS011;5979;50.800;4.904;2023-04-28T07:37:53;6.45;;;5.93;;
11839;SDS011;5979;50.800;4.904;2023-04-28T07:40:19;6.47;;;5.88;;
11839;SDS011;5979;50.800;4.904;2023-04-28T07:42:45;6.45;;;5.95;;
11839;SDS011;5979;50.800;4.904;2023-04-28T07:45:13;5.75;;;5.40;;
11839;SDS011;5979;50.800;4.904;2023-04-28T07:47:39;6.00;;;5.50;;
11839;SDS011;5979;50.800;4.904;2023-04-28T07:50:05;6.25;;;5.75;;
11839;SDS011;5979;50.800;4.904;2023-04-28T07:52:32;5.55;;;5.25;;
11839;SDS011;5979;50.800;4.904;2023-04-28T07:54:58;5.90;;;5.50;;
11839;SDS011;5979;50.800;4.904;2023-04-28T07:57:24;5.75;;;5.35;;
11839;SDS011;5979;50.800;4.904;2023-04-28T07:59:50;4.95;;;4.55;;
11839;SDS011;5979;50.800;4.904;2023-04-28T08:02:16;4.70;;;4.43;;
11839;SDS011;5979;50.800;4.904;2023-04-28T08:04:44;5.00;;;4.70;;
11839;SDS011;5979;50.800;4.904;2023-04-28T08:07:10;4.55;;;4.25;;
11839;SDS011;5979;50.800;4.904;2023-04-28T08:09:36;5.22;;;4.82;;
11839;SDS011;5979;50.800;4.904;2023-04-28T08:12:02;4.75;;;4.43;;
11839;SDS011;5979;50.800;4.904;2023-04-28T08:14:28;4.63;;;4.35;;
11839;SDS011;5979;50.800;4.904;2023-04-28T08:16:53;5.60;;;5.20;;
11839;SDS011;5979;50.800;4.904;2023-04-28T08:19:19;4.85;;;4.55;;
11839;SDS011;5979;50.800;4.904;2023-04-28T08:21:45;5.38;;;4.97;;
11839;SDS011;5979;50.800;4.904;2023-04-28T08:24:11;4.88;;;4.57;;
11839;SDS011;5979;50.800;4.904;2023-04-28T08:26:37;3.67;;;3.47;;
11839;SDS011;5979;50.800;4.904;2023-04-28T08:29:03;3.42;;;3.22;;
11839;SDS011;5979;50.800;4.904;2023-04-28T08:31:29;3.47;;;3.28;;
11839;SDS011;5979;50.800;4.904;2023-04-28T08:33:54;3.45;;;3.20;;
11839;SDS011;5979;50.800;4.904;2023-04-28T08:36:20;3.00;;;2.90;;
11839;SDS011;5979;50.800;4.904;2023-04-28T08:38:47;3.17;;;2.97;;
11839;SDS011;5979;50.800;4.904;2023-04-28T08:41:16;3.13;;;3.03;;
11839;SDS011;5979;50.800;4.904;2023-04-28T08:43:43;2.90;;;2.80;;
11839;SDS011;5979;50.800;4.904;2023-04-28T08:46:09;3.88;;;3.00;;
11839;SDS011;5979;50.800;4.904;2023-04-28T08:48:38;3.40;;;3.13;;
11839;SDS011;5979;50.800;4.904;2023-04-28T08:51:05;3.67;;;2.88;;
11839;SDS011;5979;50.800;4.904;2023-04-28T08:53:33;3.47;;;3.28;;
11839;SDS011;5979;50.800;4.904;2023-04-28T08:56:02;3.35;;;3.25;;
11839;SDS011;5979;50.800;4.904;2023-04-28T08:58:31;3.65;;;3.30;;
11839;SDS011;5979;50.800;4.904;2023-04-28T09:00:59;3.30;;;3.10;;
11839;SDS011;5979;50.800;4.904;2023-04-28T09:03:28;3.88;;;3.58;;
11839;SDS011;5979;50.800;4.904;2023-04-28T09:05:55;3.40;;;3.30;;
11839;SDS011;5979;50.800;4.904;2023-04-28T09:08:21;3.38;;;3.20;;
11839;SDS011;5979;50.800;4.904;2023-04-28T09:10:46;3.55;;;3.35;;
11839;SDS011;5979;50.800;4.904;2023-04-28T09:13:24;3.72;;;3.53;;
11839;SDS011;5979;50.800;4.904;2023-04-28T09:15:50;3.78;;;3.58;;
11839;SDS011;5979;50.800;4.904;2023-04-28T09:18:24;3.97;;;3.78;;
11839;SDS011;5979;50.800;4.904;2023-04-28T09:20:49;4.20;;;4.00;;
11839;SDS011;5979;50.800;4.904;2023-04-28T09:23:19;4.03;;;3.83;;
11839;SDS011;5979;50.800;4.904;2023-04-28T09:25:55;4.57;;;4.18;;
11839;SDS011;5979;50.800;4.904;2023-04-28T09:28:23;3.35;;;3.10;;
11839;SDS011;5979;50.800;4.904;2023-04-28T09:30:49;3.72;;;3.42;;
11839;SDS011;5979;50.800;4.904;2023-04-28T09:33:14;3.30;;;3.00;;
11839;SDS011;5979;50.800;4.904;2023-04-28T09:35:41;2.90;;;2.78;;
11839;SDS011;5979;50.800;4.904;2023-04-28T09:38:07;2.40;;;2.30;;
11839;SDS011;5979;50.800;4.904;2023-04-28T09:40:48;2.25;;;2.15;;
11839;SDS011;5979;50.800;4.904;2023-04-28T09:43:30;2.58;;;2.47;;
11839;SDS011;5979;50.800;4.904;2023-04-28T09:46:01;2.20;;;2.10;;
11839;SDS011;5979;50.800;4.904;2023-04-28T09:48:36;1.80;;;1.80;;
11839;SDS011;5979;50.800;4.904;2023-04-28T09:51:03;1.90;;;1.90;;
11839;SDS011;5979;50.800;4.904;2023-04-28T09:53:30;1.20;;;1.20;;
11839;SDS011;5979;50.800;4.904;2023-04-28T09:55:58;1.55;;;1.45;;
11839;SDS011;5979;50.800;4.904;2023-04-28T09:58:25;1.27;;;1.17;;
11839;SDS011;5979;50.800;4.904;2023-04-28T10:00:53;1.30;;;1.30;;
11839;SDS011;5979;50.800;4.904;2023-04-28T10:03:20;1.42;;;1.42;;
11839;SDS011;5979;50.800;4.904;2023-04-28T10:05:50;1.30;;;1.30;;
11839;SDS011;5979;50.800;4.904;2023-04-28T10:08:18;1.73;;;1.45;;
11839;SDS011;5979;50.800;4.904;2023-04-28T10:10:48;1.55;;;1.52;;
11839;SDS011;5979;50.800;4.904;2023-04-28T10:13:17;1.30;;;1.30;;
11839;SDS011;5979;50.800;4.904;2023-04-28T10:15:44;1.25;;;1.20;;
11839;SDS011;5979;50.800;4.904;2023-04-28T10:18:11;2.40;;;1.42;;
11839;SDS011;5979;50.800;4.904;2023-04-28T10:20:39;1.52;;;1.02;;
11839;SDS011;5979;50.800;4.904;2023-04-28T10:23:25;1.10;;;1.10;;
11839;SDS011;5979;50.800;4.904;2023-04-28T10:25:57;1.00;;;1.00;;
11839;SDS011;5979;50.800;4.904;2023-04-28T10:28:24;0.80;;;0.80;;
11839;SDS011;5979;50.800;4.904;2023-04-28T10:31:13;1.10;;;1.10;;
11839;SDS011;5979;50.800;4.904;2023-04-28T10:33:40;0.95;;;0.80;;
11839;SDS011;5979;50.800;4.904;2023-04-28T10:36:06;1.88;;;1.08;;
11839;SDS011;5979;50.800;4.904;2023-04-28T10:38:33;0.85;;;0.85;;
11839;SDS011;5979;50.800;4.904;2023-04-28T10:41:00;0.73;;;0.73;;
11839;SDS011;5979;50.800;4.904;2023-04-28T10:56:26;0.90;;;0.90;;
11839;SDS011;5979;50.800;4.904;2023-04-28T10:58:52;0.82;;;0.82;;
11839;SDS011;5979;50.800;4.904;2023-04-28T11:06:32;1.17;;;0.80;;
11839;SDS011;5979;50.800;4.904;2023-04-28T11:19:29;1.20;;;1.10;;
11839;SDS011;5979;50.800;4.904;2023-04-28T11:24:37;0.80;;;0.80;;
11839;SDS011;5979;50.800;4.904;2023-04-28T11:27:03;1.10;;;1.10;;
11839;SDS011;5979;50.800;4.904;2023-04-28T11:29:29;1.15;;;1.15;;
11839;SDS011;5979;50.800;4.904;2023-04-28T11:31:57;1.00;;;1.00;;
11839;SDS011;5979;50.800;4.904;2023-04-28T11:34:23;1.48;;;1.38;;
11839;SDS011;5979;50.800;4.904;2023-04-28T11:36:49;1.58;;;1.30;;
11839;SDS011;5979;50.800;4.904;2023-04-28T11:39:15;1.30;;;1.20;;
11839;SDS011;5979;50.800;4.904;2023-04-28T11:41:42;1.20;;;1.20;;
11839;SDS011;5979;50.800;4.904;2023-04-28T11:46:35;1.60;;;1.10;;
11839;SDS011;5979;50.800;4.904;2023-04-28T11:49:09;1.10;;;1.10;;
11839;SDS011;5979;50.800;4.904;2023-04-28T11:51:36;1.92;;;1.10;;
11839;SDS011;5979;50.800;4.904;2023-04-28T11:54:06;1.42;;;1.30;;
11839;SDS011;5979;50.800;4.904;2023-04-28T11:56:38;1.23;;;1.00;;
11839;SDS011;5979;50.800;4.904;2023-04-28T11:59:08;0.98;;;0.98;;
11839;SDS011;5979;50.800;4.904;2023-04-28T12:01:47;1.02;;;1.02;;
11839;SDS011;5979;50.800;4.904;2023-04-28T12:04:32;1.35;;;1.25;;
11839;SDS011;5979;50.800;4.904;2023-04-28T12:07:10;1.13;;;1.10;;
11839;SDS011;5979;50.800;4.904;2023-04-28T12:09:40;1.00;;;1.00;;
11839;SDS011;5979;50.800;4.904;2023-04-28T12:12:08;1.15;;;1.15;;
11839;SDS011;5979;50.800;4.904;2023-04-28T12:14:55;1.00;;;1.00;;
11839;SDS011;5979;50.800;4.904;2023-04-28T12:17:29;1.15;;;1.00;;
11839;SDS011;5979;50.800;4.904;2023-04-28T12:19:55;1.13;;;1.08;;
11839;SDS011;5979;50.800;4.904;2023-04-28T12:22:23;0.90;;;0.90;;
11839;SDS011;5979;50.800;4.904;2023-04-28T12:25:10;1.15;;;1.00;;
11839;SDS011;5979;50.800;4.904;2023-04-28T12:27:38;1.00;;;1.00;;
11839;SDS011;5979;50.800;4.904;2023-04-28T12:32:46;1.10;;;1.10;;
11839;SDS011;5979;50.800;4.904;2023-04-28T12:35:12;0.90;;;0.90;;
11839;SDS011;5979;50.800;4.904;2023-04-28T12:37:38;2.28;;;1.00;;
11839;SDS011;5979;50.800;4.904;2023-04-28T12:40:05;1.05;;;1.05;;
11839;SDS011;5979;50.800;4.904;2023-04-28T12:42:32;1.75;;;1.00;;
11839;SDS011;5979;50.800;4.904;2023-04-28T12:44:58;1.65;;;1.08;;
11839;SDS011;5979;50.800;4.904;2023-04-28T12:47:24;1.23;;;1.05;;
11839;SDS011;5979;50.800;4.904;2023-04-28T12:49:50;1.00;;;0.80;;
11839;SDS011;5979;50.800;4.904;2023-04-28T12:52:20;1.20;;;1.10;;
11839;SDS011;5979;50.800;4.904;2023-04-28T12:54:46;2.05;;;1.13;;
11839;SDS011;5979;50.800;4.904;2023-04-28T12:57:15;1.10;;;1.10;;
11839;SDS011;5979;50.800;4.904;2023-04-28T12:59:42;1.35;;;1.35;;
11839;SDS011;5979;50.800;4.904;2023-04-28T13:02:09;1.58;;;1.48;;
11839;SDS011;5979;50.800;4.904;2023-04-28T13:04:35;1.92;;;1.80;;
11839;SDS011;5979;50.800;4.904;2023-04-28T13:07:00;2.42;;;2.22;;
11839;SDS011;5979;50.800;4.904;2023-04-28T13:09:27;4.78;;;2.30;;
11839;SDS011;5979;50.800;4.904;2023-04-28T13:11:53;3.60;;;2.38;;
11839;SDS011;5979;50.800;4.904;2023-04-28T13:14:19;2.78;;;2.50;;
11839;SDS011;5979;50.800;4.904;2023-04-28T13:16:45;5.97;;;3.03;;
11839;SDS011;5979;50.800;4.904;2023-04-28T13:19:11;3.83;;;2.40;;
11839;SDS011;5979;50.800;4.904;2023-04-28T13:21:41;11.27;;;4.00;;
11839;SDS011;5979;50.800;4.904;2023-04-28T13:24:07;4.72;;;2.83;;
11839;SDS011;5979;50.800;4.904;2023-04-28T13:26:33;4.43;;;2.30;;
11839;SDS011;5979;50.800;4.904;2023-04-28T13:28:59;1.92;;;1.73;;
11839;SDS011;5979;50.800;4.904;2023-04-28T13:31:26;2.53;;;1.60;;
11839;SDS011;5979;50.800;4.904;2023-04-28T13:33:53;3.97;;;2.90;;
11839;SDS011;5979;50.800;4.904;2023-04-28T13:36:18;3.17;;;2.58;;
11839;SDS011;5979;50.800;4.904;2023-04-28T13:38:44;6.07;;;2.72;;
11839;SDS011;5979;50.800;4.904;2023-04-28T13:41:13;2.60;;;2.50;;
11839;SDS011;5979;50.800;4.904;2023-04-28T13:43:42;2.38;;;2.28;;
11839;SDS011;5979;50.800;4.904;2023-04-28T13:46:08;1.85;;;1.80;;
11839;SDS011;5979;50.800;4.904;2023-04-28T13:48:35;2.40;;;2.30;;
11839;SDS011;5979;50.800;4.904;2023-04-28T13:51:02;1.65;;;1.60;;
11839;SDS011;5979;50.800;4.904;2023-04-28T13:53:29;1.83;;;1.73;;
11839;SDS011;5979;50.800;4.904;2023-04-28T13:55:55;1.92;;;1.83;;
11839;SDS011;5979;50.800;4.904;2023-04-28T13:58:25;1.85;;;1.55;;
11839;SDS011;5979;50.800;4.904;2023-04-28T14:00:52;1.58;;;1.58;;
11839;SDS011;5979;50.800;4.904;2023-04-28T14:03:21;1.95;;;1.85;;
11839;SDS011;5979;50.800;4.904;2023-04-28T14:05:48;1.85;;;1.75;;
11839;SDS011;5979;50.800;4.904;2023-04-28T14:08:15;1.92;;;1.83;;
11839;SDS011;5979;50.800;4.904;2023-04-28T14:10:41;1.50;;;1.50;;
11839;SDS011;5979;50.800;4.904;2023-04-28T14:13:07;1.80;;;1.60;;
11839;SDS011;5979;50.800;4.904;2023-04-28T14:15:33;1.90;;;1.80;;
11839;SDS011;5979;50.800;4.904;2023-04-28T14:17:59;2.03;;;1.92;;
11839;SDS011;5979;50.800;4.904;2023-04-28T14:20:25;2.00;;;1.90;;
11839;SDS011;5979;50.800;4.904;2023-04-28T14:22:51;1.52;;;1.42;;
11839;SDS011;5979;50.800;4.904;2023-04-28T14:25:17;1.60;;;1.50;;
11839;SDS011;5979;50.800;4.904;2023-04-28T14:27:43;0.95;;;0.95;;
11839;SDS011;5979;50.800;4.904;2023-04-28T14:30:09;1.02;;;1.02;;
11839;SDS011;5979;50.800;4.904;2023-04-28T14:32:35;1.13;;;1.13;;
11839;SDS011;5979;50.800;4.904;2023-04-28T14:35:02;1.10;;;1.10;;
11839;SDS011;5979;50.800;4.904;2023-04-28T14:37:30;0.90;;;0.90;;
11839;SDS011;5979;50.800;4.904;2023-04-28T14:39:56;1.17;;;1.10;;
11839;SDS011;5979;50.800;4.904;2023-04-28T14:42:26;0.95;;;0.95;;
11839;SDS011;5979;50.800;4.904;2023-04-28T14:44:55;1.67;;;1.50;;
11839;SDS011;5979;50.800;4.904;2023-04-28T14:47:21;1.85;;;1.40;;
11839;SDS011;5979;50.800;4.904;2023-04-28T14:49:46;1.45;;;1.35;;
11839;SDS011;5979;50.800;4.904;2023-04-28T14:52:12;1.45;;;1.45;;
11839;SDS011;5979;50.800;4.904;2023-04-28T14:54:38;1.70;;;1.60;;
11839;SDS011;5979;50.800;4.904;2023-04-28T14:57:04;1.30;;;1.20;;
11839;SDS011;5979;50.800;4.904;2023-04-28T14:59:30;1.38;;;1.20;;
11839;SDS011;5979;50.800;4.904;2023-04-28T15:01:56;2.88;;;1.50;;
11839;SDS011;5979;50.800;4.904;2023-04-28T15:04:22;1.15;;;1.15;;
11839;SDS011;5979;50.800;4.904;2023-04-28T15:06:54;0.95;;;0.95;;
11839;SDS011;5979;50.800;4.904;2023-04-28T15:09:21;1.80;;;1.33;;
11839;SDS011;5979;50.800;4.904;2023-04-28T15:11:47;1.15;;;1.15;;
11839;SDS011;5979;50.800;4.904;2023-04-28T15:14:13;1.48;;;1.30;;
11839;SDS011;5979;50.800;4.904;2023-04-28T15:16:39;0.98;;;0.98;;
11839;SDS011;5979;50.800;4.904;2023-04-28T15:19:04;1.40;;;1.30;;
11839;SDS011;5979;50.800;4.904;2023-04-28T15:21:30;1.15;;;1.15;;